Aviation Digital Data Service (ADDS)

Output produced by TAFs form (1535 UTC 25 June 2017)
found at http://aviationweather.gov/adds/tafs/
 
KPUB 251122Z 2512/2612 VRB04KT P6SM OVC050 
     FM251800 12007KT P6SM SCT050 
     FM252300 10012KT P6SM VCTS SCT070CB BKN150 
     FM260200 08014KT P6SM VCTS SCT050CB BKN100 
     FM260600 06006KT P6SM BKN040